sensor_id;sensor_type;location;lat;lon;timestamp;P1;durP1;ratioP1;P2;durP2;ratioP2
69280;SDS011;56392;51.082;17.080;2023-03-21T00:03:09;41.00;;;20.37;;
69280;SDS011;56392;51.082;17.080;2023-03-21T00:08:34;41.33;;;19.03;;
69280;SDS011;56392;51.082;17.080;2023-03-21T00:13:57;39.33;;;18.33;;
69280;SDS011;56392;51.082;17.080;2023-03-21T00:19:22;39.47;;;22.17;;
69280;SDS011;56392;51.082;17.080;2023-03-21T00:24:48;39.47;;;21.20;;
69280;SDS011;56392;51.082;17.080;2023-03-21T00:30:12;38.72;;;21.38;;
69280;SDS011;56392;51.082;17.080;2023-03-21T00:35:36;42.00;;;21.52;;
69280;SDS011;56392;51.082;17.080;2023-03-21T00:41:05;42.67;;;21.93;;
69280;SDS011;56392;51.082;17.080;2023-03-21T00:46:31;37.50;;;19.45;;
69280;SDS011;56392;51.082;17.080;2023-03-21T00:51:56;38.83;;;19.33;;
69280;SDS011;56392;51.082;17.080;2023-03-21T00:57:20;39.93;;;19.80;;
69280;SDS011;56392;51.082;17.080;2023-03-21T01:02:43;40.77;;;19.93;;
69280;SDS011;56392;51.082;17.080;2023-03-21T01:08:17;39.80;;;20.60;;
69280;SDS011;56392;51.082;17.080;2023-03-21T01:13:43;43.15;;;21.33;;
69280;SDS011;56392;51.082;17.080;2023-03-21T01:19:06;42.87;;;20.73;;
69280;SDS011;56392;51.082;17.080;2023-03-21T01:24:30;33.25;;;16.00;;
69280;SDS011;56392;51.082;17.080;2023-03-21T01:29:55;29.30;;;14.65;;
69280;SDS011;56392;51.082;17.080;2023-03-21T01:35:18;30.33;;;14.73;;
69280;SDS011;56392;51.082;17.080;2023-03-21T01:40:42;29.80;;;14.45;;
69280;SDS011;56392;51.082;17.080;2023-03-21T01:51:54;31.17;;;15.90;;
69280;SDS011;56392;51.082;17.080;2023-03-21T01:57:23;38.10;;;18.20;;
69280;SDS011;56392;51.082;17.080;2023-03-21T02:02:55;29.67;;;14.75;;
69280;SDS011;56392;51.082;17.080;2023-03-21T02:08:19;27.90;;;13.32;;
69280;SDS011;56392;51.082;17.080;2023-03-21T02:13:44;27.90;;;13.50;;
69280;SDS011;56392;51.082;17.080;2023-03-21T02:19:17;26.08;;;13.02;;
69280;SDS011;56392;51.082;17.080;2023-03-21T02:31:04;26.70;;;13.40;;
69280;SDS011;56392;51.082;17.080;2023-03-21T02:36:50;26.80;;;13.40;;
69280;SDS011;56392;51.082;17.080;2023-03-21T02:42:19;29.08;;;13.88;;
69280;SDS011;56392;51.082;17.080;2023-03-21T02:47:50;30.13;;;13.17;;
69280;SDS011;56392;51.082;17.080;2023-03-21T02:53:20;28.60;;;13.63;;
69280;SDS011;56392;51.082;17.080;2023-03-21T02:58:47;26.90;;;13.70;;
69280;SDS011;56392;51.082;17.080;2023-03-21T03:04:18;29.10;;;14.32;;
69280;SDS011;56392;51.082;17.080;2023-03-21T03:09:47;32.13;;;14.97;;
69280;SDS011;56392;51.082;17.080;2023-03-21T03:15:23;32.13;;;15.05;;
69280;SDS011;56392;51.082;17.080;2023-03-21T03:20:57;31.80;;;15.35;;
69280;SDS011;56392;51.082;17.080;2023-03-21T03:26:32;32.00;;;14.83;;
69280;SDS011;56392;51.082;17.080;2023-03-21T03:31:58;33.15;;;15.30;;
69280;SDS011;56392;51.082;17.080;2023-03-21T03:37:26;36.78;;;16.52;;
69280;SDS011;56392;51.082;17.080;2023-03-21T03:42:54;33.63;;;15.37;;
69280;SDS011;56392;51.082;17.080;2023-03-21T03:48:22;33.87;;;15.67;;
69280;SDS011;56392;51.082;17.080;2023-03-21T03:53:49;36.53;;;16.65;;
69280;SDS011;56392;51.082;17.080;2023-03-21T03:59:17;34.17;;;15.88;;
69280;SDS011;56392;51.082;17.080;2023-03-21T04:04:42;34.93;;;15.97;;
69280;SDS011;56392;51.082;17.080;2023-03-21T04:10:05;35.30;;;14.98;;
69280;SDS011;56392;51.082;17.080;2023-03-21T04:15:30;36.60;;;15.63;;
69280;SDS011;56392;51.082;17.080;2023-03-21T04:20:53;35.30;;;15.67;;
69280;SDS011;56392;51.082;17.080;2023-03-21T04:26:16;34.08;;;16.00;;
69280;SDS011;56392;51.082;17.080;2023-03-21T04:31:42;36.20;;;16.27;;
69280;SDS011;56392;51.082;17.080;2023-03-21T04:37:06;35.17;;;16.10;;
69280;SDS011;56392;51.082;17.080;2023-03-21T04:42:33;37.43;;;16.00;;
69280;SDS011;56392;51.082;17.080;2023-03-21T04:47:58;38.00;;;15.77;;
69280;SDS011;56392;51.082;17.080;2023-03-21T04:53:21;37.97;;;17.10;;
69280;SDS011;56392;51.082;17.080;2023-03-21T04:58:44;36.50;;;16.67;;
69280;SDS011;56392;51.082;17.080;2023-03-21T05:04:08;42.35;;;17.60;;
69280;SDS011;56392;51.082;17.080;2023-03-21T05:09:33;39.67;;;16.67;;
69280;SDS011;56392;51.082;17.080;2023-03-21T05:14:56;41.43;;;17.43;;
69280;SDS011;56392;51.082;17.080;2023-03-21T05:20:21;39.22;;;17.77;;
69280;SDS011;56392;51.082;17.080;2023-03-21T05:25:44;41.35;;;17.52;;
69280;SDS011;56392;51.082;17.080;2023-03-21T05:31:08;40.00;;;17.60;;
69280;SDS011;56392;51.082;17.080;2023-03-21T05:36:37;39.70;;;17.40;;
69280;SDS011;56392;51.082;17.080;2023-03-21T05:42:00;40.40;;;18.73;;
69280;SDS011;56392;51.082;17.080;2023-03-21T05:47:23;36.95;;;17.70;;
69280;SDS011;56392;51.082;17.080;2023-03-21T05:52:48;39.90;;;18.37;;
69280;SDS011;56392;51.082;17.080;2023-03-21T05:58:11;40.33;;;17.98;;
69280;SDS011;56392;51.082;17.080;2023-03-21T06:03:34;43.30;;;18.45;;
69280;SDS011;56392;51.082;17.080;2023-03-21T06:08:59;40.47;;;18.43;;
69280;SDS011;56392;51.082;17.080;2023-03-21T06:14:22;37.28;;;18.00;;
69280;SDS011;56392;51.082;17.080;2023-03-21T06:19:46;39.47;;;17.75;;
69280;SDS011;56392;51.082;17.080;2023-03-21T06:25:10;38.70;;;16.70;;
69280;SDS011;56392;51.082;17.080;2023-03-21T06:30:33;39.10;;;17.13;;
69280;SDS011;56392;51.082;17.080;2023-03-21T06:35:57;34.65;;;17.10;;
69280;SDS011;56392;51.082;17.080;2023-03-21T06:41:22;37.53;;;16.73;;
69280;SDS011;56392;51.082;17.080;2023-03-21T06:46:45;35.03;;;15.50;;
69280;SDS011;56392;51.082;17.080;2023-03-21T06:52:08;33.35;;;15.57;;
69280;SDS011;56392;51.082;17.080;2023-03-21T06:57:32;35.25;;;16.05;;
69280;SDS011;56392;51.082;17.080;2023-03-21T07:02:56;37.23;;;16.90;;
69280;SDS011;56392;51.082;17.080;2023-03-21T07:08:19;34.78;;;15.70;;
69280;SDS011;56392;51.082;17.080;2023-03-21T07:13:43;32.80;;;14.90;;
69280;SDS011;56392;51.082;17.080;2023-03-21T07:19:07;34.73;;;15.57;;
69280;SDS011;56392;51.082;17.080;2023-03-21T07:24:30;33.57;;;15.53;;
69280;SDS011;56392;51.082;17.080;2023-03-21T07:29:54;31.88;;;13.50;;
69280;SDS011;56392;51.082;17.080;2023-03-21T07:35:17;27.77;;;12.25;;
69280;SDS011;56392;51.082;17.080;2023-03-21T07:40:41;25.70;;;12.90;;
69280;SDS011;56392;51.082;17.080;2023-03-21T07:46:05;28.38;;;13.23;;
69280;SDS011;56392;51.082;17.080;2023-03-21T07:51:28;29.73;;;14.15;;
69280;SDS011;56392;51.082;17.080;2023-03-21T07:56:51;29.87;;;14.90;;
69280;SDS011;56392;51.082;17.080;2023-03-21T08:02:16;33.40;;;14.02;;
69280;SDS011;56392;51.082;17.080;2023-03-21T08:07:41;34.10;;;15.00;;
69280;SDS011;56392;51.082;17.080;2023-03-21T08:13:04;35.97;;;15.80;;
69280;SDS011;56392;51.082;17.080;2023-03-21T08:18:29;29.00;;;13.63;;
69280;SDS011;56392;51.082;17.080;2023-03-21T08:23:55;30.15;;;14.27;;
69280;SDS011;56392;51.082;17.080;2023-03-21T08:29:18;31.27;;;15.20;;
69280;SDS011;56392;51.082;17.080;2023-03-21T08:34:44;31.67;;;14.77;;
69280;SDS011;56392;51.082;17.080;2023-03-21T08:40:08;28.90;;;13.95;;
69280;SDS011;56392;51.082;17.080;2023-03-21T08:45:33;31.48;;;13.05;;
69280;SDS011;56392;51.082;17.080;2023-03-21T08:51:00;29.63;;;14.33;;
69280;SDS011;56392;51.082;17.080;2023-03-21T08:56:23;31.90;;;14.50;;
69280;SDS011;56392;51.082;17.080;2023-03-21T09:01:46;32.83;;;15.27;;
69280;SDS011;56392;51.082;17.080;2023-03-21T09:07:11;35.40;;;16.47;;
69280;SDS011;56392;51.082;17.080;2023-03-21T09:12:35;33.63;;;15.53;;
69280;SDS011;56392;51.082;17.080;2023-03-21T09:17:58;36.95;;;16.40;;
69280;SDS011;56392;51.082;17.080;2023-03-21T09:23:34;39.20;;;16.63;;
69280;SDS011;56392;51.082;17.080;2023-03-21T09:28:58;32.73;;;16.20;;
69280;SDS011;56392;51.082;17.080;2023-03-21T09:34:21;34.28;;;16.77;;
69280;SDS011;56392;51.082;17.080;2023-03-21T09:39:46;33.25;;;15.48;;
69280;SDS011;56392;51.082;17.080;2023-03-21T09:45:12;32.07;;;14.20;;
69280;SDS011;56392;51.082;17.080;2023-03-21T09:50:44;30.83;;;13.90;;
69280;SDS011;56392;51.082;17.080;2023-03-21T09:56:09;30.02;;;14.80;;
69280;SDS011;56392;51.082;17.080;2023-03-21T10:01:34;30.00;;;14.80;;
69280;SDS011;56392;51.082;17.080;2023-03-21T10:07:05;26.60;;;13.57;;
69280;SDS011;56392;51.082;17.080;2023-03-21T10:12:37;31.67;;;15.40;;
69280;SDS011;56392;51.082;17.080;2023-03-21T10:18:01;33.20;;;15.80;;
69280;SDS011;56392;51.082;17.080;2023-03-21T10:23:27;28.80;;;15.27;;
69280;SDS011;56392;51.082;17.080;2023-03-21T10:28:52;29.10;;;15.25;;
69280;SDS011;56392;51.082;17.080;2023-03-21T10:34:18;30.58;;;15.73;;
69280;SDS011;56392;51.082;17.080;2023-03-21T10:39:47;29.97;;;15.07;;
69280;SDS011;56392;51.082;17.080;2023-03-21T10:45:15;27.92;;;15.05;;
69280;SDS011;56392;51.082;17.080;2023-03-21T10:50:40;32.15;;;15.90;;
69280;SDS011;56392;51.082;17.080;2023-03-21T10:56:05;34.00;;;16.63;;
69280;SDS011;56392;51.082;17.080;2023-03-21T11:01:34;31.27;;;16.03;;
69280;SDS011;56392;51.082;17.080;2023-03-21T11:07:00;31.98;;;16.15;;
69280;SDS011;56392;51.082;17.080;2023-03-21T11:12:28;30.50;;;17.42;;
69280;SDS011;56392;51.082;17.080;2023-03-21T11:17:53;31.67;;;16.37;;
69280;SDS011;56392;51.082;17.080;2023-03-21T11:23:17;33.72;;;16.42;;
69280;SDS011;56392;51.082;17.080;2023-03-21T11:28:41;31.27;;;17.05;;
69280;SDS011;56392;51.082;17.080;2023-03-21T11:34:07;30.13;;;16.57;;
69280;SDS011;56392;51.082;17.080;2023-03-21T11:39:34;31.95;;;16.80;;
69280;SDS011;56392;51.082;17.080;2023-03-21T11:45:02;37.30;;;18.83;;
69280;SDS011;56392;51.082;17.080;2023-03-21T11:50:34;31.23;;;17.77;;
69280;SDS011;56392;51.082;17.080;2023-03-21T11:56:01;31.33;;;17.37;;
69280;SDS011;56392;51.082;17.080;2023-03-21T12:01:30;36.90;;;18.38;;
69280;SDS011;56392;51.082;17.080;2023-03-21T12:07:07;34.58;;;18.77;;
69280;SDS011;56392;51.082;17.080;2023-03-21T12:12:44;37.37;;;19.03;;
69280;SDS011;56392;51.082;17.080;2023-03-21T12:18:16;35.40;;;18.70;;
69280;SDS011;56392;51.082;17.080;2023-03-21T12:23:56;34.13;;;18.52;;
69280;SDS011;56392;51.082;17.080;2023-03-21T12:29:32;32.53;;;18.70;;
69280;SDS011;56392;51.082;17.080;2023-03-21T12:35:14;30.92;;;18.38;;
69280;SDS011;56392;51.082;17.080;2023-03-21T12:40:50;33.35;;;17.52;;
69280;SDS011;56392;51.082;17.080;2023-03-21T12:46:26;34.53;;;17.63;;
69280;SDS011;56392;51.082;17.080;2023-03-21T12:51:56;37.57;;;20.00;;
69280;SDS011;56392;51.082;17.080;2023-03-21T12:57:26;35.60;;;19.23;;
69280;SDS011;56392;51.082;17.080;2023-03-21T13:02:55;34.28;;;18.33;;
69280;SDS011;56392;51.082;17.080;2023-03-21T13:08:22;31.40;;;17.50;;
69280;SDS011;56392;51.082;17.080;2023-03-21T13:13:52;30.88;;;17.08;;
69280;SDS011;56392;51.082;17.080;2023-03-21T13:19:21;31.42;;;16.00;;
69280;SDS011;56392;51.082;17.080;2023-03-21T13:24:55;30.40;;;15.13;;
69280;SDS011;56392;51.082;17.080;2023-03-21T13:30:22;38.92;;;17.60;;
69280;SDS011;56392;51.082;17.080;2023-03-21T13:35:53;28.63;;;16.00;;
69280;SDS011;56392;51.082;17.080;2023-03-21T13:41:24;31.97;;;15.73;;
69280;SDS011;56392;51.082;17.080;2023-03-21T13:46:54;34.60;;;17.13;;
69280;SDS011;56392;51.082;17.080;2023-03-21T13:52:25;28.05;;;15.30;;
69280;SDS011;56392;51.082;17.080;2023-03-21T13:57:49;31.30;;;16.38;;
69280;SDS011;56392;51.082;17.080;2023-03-21T14:03:14;31.50;;;17.17;;
69280;SDS011;56392;51.082;17.080;2023-03-21T14:08:38;34.33;;;16.30;;
69280;SDS011;56392;51.082;17.080;2023-03-21T14:14:07;29.92;;;16.23;;
69280;SDS011;56392;51.082;17.080;2023-03-21T14:19:33;34.53;;;16.93;;
69280;SDS011;56392;51.082;17.080;2023-03-21T14:24:56;35.72;;;16.20;;
69280;SDS011;56392;51.082;17.080;2023-03-21T14:30:20;29.02;;;15.35;;
69280;SDS011;56392;51.082;17.080;2023-03-21T14:35:48;26.90;;;13.80;;
69280;SDS011;56392;51.082;17.080;2023-03-21T14:41:18;23.63;;;12.50;;
69280;SDS011;56392;51.082;17.080;2023-03-21T14:46:43;24.02;;;12.27;;
69280;SDS011;56392;51.082;17.080;2023-03-21T14:52:08;25.13;;;12.77;;
69280;SDS011;56392;51.082;17.080;2023-03-21T14:57:34;26.27;;;14.37;;
69280;SDS011;56392;51.082;17.080;2023-03-21T15:02:59;28.88;;;14.10;;
69280;SDS011;56392;51.082;17.080;2023-03-21T15:08:25;28.88;;;14.13;;
69280;SDS011;56392;51.082;17.080;2023-03-21T15:13:49;26.93;;;14.13;;
69280;SDS011;56392;51.082;17.080;2023-03-21T15:19:17;26.58;;;14.77;;
69280;SDS011;56392;51.082;17.080;2023-03-21T15:24:46;26.13;;;14.20;;
69280;SDS011;56392;51.082;17.080;2023-03-21T15:30:19;27.63;;;15.37;;
69280;SDS011;56392;51.082;17.080;2023-03-21T15:35:45;29.90;;;15.47;;
69280;SDS011;56392;51.082;17.080;2023-03-21T15:41:23;26.90;;;14.70;;
69280;SDS011;56392;51.082;17.080;2023-03-21T15:46:49;29.75;;;15.07;;
69280;SDS011;56392;51.082;17.080;2023-03-21T15:52:13;28.73;;;15.57;;
69280;SDS011;56392;51.082;17.080;2023-03-21T15:57:39;32.30;;;16.95;;
69280;SDS011;56392;51.082;17.080;2023-03-21T16:03:09;32.67;;;18.45;;
69280;SDS011;56392;51.082;17.080;2023-03-21T16:08:42;32.60;;;17.80;;
69280;SDS011;56392;51.082;17.080;2023-03-21T16:14:08;33.40;;;17.83;;
69280;SDS011;56392;51.082;17.080;2023-03-21T16:19:31;30.58;;;16.83;;
69280;SDS011;56392;51.082;17.080;2023-03-21T16:24:54;33.70;;;17.63;;
69280;SDS011;56392;51.082;17.080;2023-03-21T16:30:19;34.97;;;17.67;;
69280;SDS011;56392;51.082;17.080;2023-03-21T16:35:47;32.65;;;18.02;;
69280;SDS011;56392;51.082;17.080;2023-03-21T16:41:12;36.42;;;19.33;;
69280;SDS011;56392;51.082;17.080;2023-03-21T16:46:37;39.30;;;19.80;;
69280;SDS011;56392;51.082;17.080;2023-03-21T16:52:01;34.33;;;18.52;;
69280;SDS011;56392;51.082;17.080;2023-03-21T16:57:24;38.50;;;18.58;;
69280;SDS011;56392;51.082;17.080;2023-03-21T17:02:50;32.00;;;18.07;;
69280;SDS011;56392;51.082;17.080;2023-03-21T17:08:16;37.00;;;18.98;;
69280;SDS011;56392;51.082;17.080;2023-03-21T17:13:40;40.08;;;20.48;;
69280;SDS011;56392;51.082;17.080;2023-03-21T17:19:10;39.00;;;19.63;;
69280;SDS011;56392;51.082;17.080;2023-03-21T17:24:34;36.33;;;19.73;;
69280;SDS011;56392;51.082;17.080;2023-03-21T17:29:57;43.33;;;21.38;;
69280;SDS011;56392;51.082;17.080;2023-03-21T17:35:24;34.05;;;18.50;;
69280;SDS011;56392;51.082;17.080;2023-03-21T17:40:49;34.10;;;18.83;;
69280;SDS011;56392;51.082;17.080;2023-03-21T17:46:14;41.00;;;19.35;;
69280;SDS011;56392;51.082;17.080;2023-03-21T17:51:39;37.75;;;20.42;;
69280;SDS011;56392;51.082;17.080;2023-03-21T17:57:02;42.43;;;20.93;;
69280;SDS011;56392;51.082;17.080;2023-03-21T18:02:25;46.75;;;23.63;;
69280;SDS011;56392;51.082;17.080;2023-03-21T18:07:50;50.78;;;25.85;;
69280;SDS011;56392;51.082;17.080;2023-03-21T18:13:14;48.60;;;25.77;;
69280;SDS011;56392;51.082;17.080;2023-03-21T18:18:37;47.70;;;25.60;;
69280;SDS011;56392;51.082;17.080;2023-03-21T18:24:02;52.03;;;26.75;;
69280;SDS011;56392;51.082;17.080;2023-03-21T18:29:25;51.30;;;26.77;;
69280;SDS011;56392;51.082;17.080;2023-03-21T18:34:49;51.57;;;26.67;;
69280;SDS011;56392;51.082;17.080;2023-03-21T18:40:13;51.70;;;27.30;;
69280;SDS011;56392;51.082;17.080;2023-03-21T18:45:42;50.72;;;26.10;;
69280;SDS011;56392;51.082;17.080;2023-03-21T18:51:05;54.37;;;28.20;;
69280;SDS011;56392;51.082;17.080;2023-03-21T18:56:31;55.75;;;27.90;;
69280;SDS011;56392;51.082;17.080;2023-03-21T19:01:54;53.92;;;28.00;;
69280;SDS011;56392;51.082;17.080;2023-03-21T19:07:18;55.17;;;28.23;;
69280;SDS011;56392;51.082;17.080;2023-03-21T19:12:43;54.67;;;27.80;;
69280;SDS011;56392;51.082;17.080;2023-03-21T19:18:06;56.80;;;28.88;;
69280;SDS011;56392;51.082;17.080;2023-03-21T19:23:30;56.28;;;28.90;;
69280;SDS011;56392;51.082;17.080;2023-03-21T19:28:55;65.33;;;30.97;;
69280;SDS011;56392;51.082;17.080;2023-03-21T19:34:18;64.97;;;31.40;;
69280;SDS011;56392;51.082;17.080;2023-03-21T19:39:41;63.75;;;30.38;;
69280;SDS011;56392;51.082;17.080;2023-03-21T19:45:07;64.90;;;31.30;;
69280;SDS011;56392;51.082;17.080;2023-03-21T19:50:33;63.55;;;30.75;;
69280;SDS011;56392;51.082;17.080;2023-03-21T19:55:57;60.28;;;31.00;;
69280;SDS011;56392;51.082;17.080;2023-03-21T20:01:21;62.80;;;31.20;;
69280;SDS011;56392;51.082;17.080;2023-03-21T20:06:45;62.43;;;30.50;;
69280;SDS011;56392;51.082;17.080;2023-03-21T20:12:10;56.25;;;28.75;;
69280;SDS011;56392;51.082;17.080;2023-03-21T20:17:35;55.92;;;29.42;;
69280;SDS011;56392;51.082;17.080;2023-03-21T20:22:59;58.87;;;29.23;;
69280;SDS011;56392;51.082;17.080;2023-03-21T20:28:22;61.13;;;30.27;;
69280;SDS011;56392;51.082;17.080;2023-03-21T20:33:46;57.45;;;30.02;;
69280;SDS011;56392;51.082;17.080;2023-03-21T20:39:11;63.53;;;30.50;;
69280;SDS011;56392;51.082;17.080;2023-03-21T20:44:34;61.63;;;29.40;;
69280;SDS011;56392;51.082;17.080;2023-03-21T20:50:00;61.92;;;29.45;;
69280;SDS011;56392;51.082;17.080;2023-03-21T20:55:23;53.33;;;27.30;;
69280;SDS011;56392;51.082;17.080;2023-03-21T21:00:46;52.07;;;26.47;;
69280;SDS011;56392;51.082;17.080;2023-03-21T21:06:13;51.53;;;26.40;;
69280;SDS011;56392;51.082;17.080;2023-03-21T21:11:38;56.75;;;27.40;;
69280;SDS011;56392;51.082;17.080;2023-03-21T21:17:01;51.97;;;26.93;;
69280;SDS011;56392;51.082;17.080;2023-03-21T21:22:26;60.72;;;28.25;;
69280;SDS011;56392;51.082;17.080;2023-03-21T21:27:49;53.97;;;26.48;;
69280;SDS011;56392;51.082;17.080;2023-03-21T21:33:14;53.03;;;25.70;;
69280;SDS011;56392;51.082;17.080;2023-03-21T21:38:39;50.05;;;26.08;;
69280;SDS011;56392;51.082;17.080;2023-03-21T21:44:02;52.10;;;24.92;;
69280;SDS011;56392;51.082;17.080;2023-03-21T21:49:26;56.20;;;26.70;;
69280;SDS011;56392;51.082;17.080;2023-03-21T21:54:50;56.00;;;26.63;;
69280;SDS011;56392;51.082;17.080;2023-03-21T22:00:14;60.38;;;28.67;;
69280;SDS011;56392;51.082;17.080;2023-03-21T22:05:39;53.33;;;26.98;;
69280;SDS011;56392;51.082;17.080;2023-03-21T22:11:06;51.57;;;25.93;;
69280;SDS011;56392;51.082;17.080;2023-03-21T22:16:29;52.22;;;25.95;;
69280;SDS011;56392;51.082;17.080;2023-03-21T22:21:52;52.83;;;26.55;;
69280;SDS011;56392;51.082;17.080;2023-03-21T22:27:19;55.10;;;26.53;;
69280;SDS011;56392;51.082;17.080;2023-03-21T22:32:44;51.00;;;25.23;;
69280;SDS011;56392;51.082;17.080;2023-03-21T22:38:08;51.25;;;24.02;;
69280;SDS011;56392;51.082;17.080;2023-03-21T22:43:32;51.27;;;24.10;;
69280;SDS011;56392;51.082;17.080;2023-03-21T22:48:55;46.80;;;23.57;;
69280;SDS011;56392;51.082;17.080;2023-03-21T22:54:18;47.63;;;22.60;;
69280;SDS011;56392;51.082;17.080;2023-03-21T22:59:43;46.13;;;21.65;;
69280;SDS011;56392;51.082;17.080;2023-03-21T23:05:06;40.10;;;21.07;;
69280;SDS011;56392;51.082;17.080;2023-03-21T23:10:30;42.28;;;21.05;;
69280;SDS011;56392;51.082;17.080;2023-03-21T23:15:55;40.85;;;20.10;;
69280;SDS011;56392;51.082;17.080;2023-03-21T23:21:27;42.73;;;20.67;;
69280;SDS011;56392;51.082;17.080;2023-03-21T23:26:52;40.90;;;20.00;;
69280;SDS011;56392;51.082;17.080;2023-03-21T23:32:16;43.60;;;21.55;;
69280;SDS011;56392;51.082;17.080;2023-03-21T23:37:40;43.97;;;20.53;;
69280;SDS011;56392;51.082;17.080;2023-03-21T23:43:12;40.73;;;19.83;;
69280;SDS011;56392;51.082;17.080;2023-03-21T23:48:36;38.38;;;19.80;;
69280;SDS011;56392;51.082;17.080;2023-03-21T23:54:00;38.75;;;19.85;;
69280;SDS011;56392;51.082;17.080;2023-03-21T23:59:23;38.63;;;18.37;;
